Time;durP1;ratioP1;P1;durP2;ratioP2;P2;SDS_P1;SDS_P2;PMS_P1;PMS_P2;Temp;Humidity;BMP_temperature;BMP_pressure;BME280_temperature;BME280_humidity;BME280_pressure;Samples;Min_cycle;Max_cycle;Signal;HPM_P1;HPM_P2
2022/01/18 00:00:27;;;;;;;29.45;3.60;;;5.70;99.90;;;;;;5010351;28;20029;-74
2022/01/18 00:02:53;;;;;;;32.90;4.60;;;5.80;99.90;;;;;;5010151;28;20120;-74
2022/01/18 00:05:19;;;;;;;23.40;4.28;;;5.70;99.90;;;;;;5009220;28;20026;-75
2022/01/18 00:07:46;;;;;;;12.02;3.13;;;5.70;99.90;;;;;;5008933;28;20472;-74
2022/01/18 00:10:12;;;;;;;31.05;4.93;;;5.70;99.90;;;;;;5008084;28;20392;-74
2022/01/18 00:20:41;;;;;;;18.73;3.50;;;5.70;99.90;;;;;;5005436;28;20061;-73
2022/01/18 00:23:09;;;;;;;25.60;3.40;;;5.80;99.90;;;;;;5007059;28;20058;-74
2022/01/18 00:25:37;;;;;;;27.25;3.60;;;5.80;99.90;;;;;;5008768;28;20628;-74
2022/01/18 00:28:12;;;;;;;22.23;3.70;;;5.80;99.90;;;;;;5009886;28;20404;-73
2022/01/18 00:33:50;;;;;;;18.00;3.00;;;5.80;99.90;;;;;;5007204;28;20021;-74
2022/01/18 00:36:23;;;;;;;25.58;3.45;;;5.90;99.90;;;;;;5007454;28;20057;-74
2022/01/18 00:38:49;;;;;;;17.98;2.83;;;5.80;99.90;;;;;;5008154;28;20033;-74
2022/01/18 00:41:19;;;;;;;17.45;2.83;;;5.80;99.90;;;;;;5009977;28;20026;-74
2022/01/18 00:43:46;;;;;;;14.85;2.50;;;5.80;99.90;;;;;;5014094;28;20126;-73
2022/01/18 00:46:12;;;;;;;14.68;2.35;;;5.90;99.90;;;;;;5012225;28;20033;-72
2022/01/18 00:48:39;;;;;;;15.25;2.60;;;5.90;99.90;;;;;;5005330;28;20014;-74
2022/01/18 00:51:09;;;;;;;20.23;2.40;;;5.90;99.90;;;;;;5005343;28;20026;-73
2022/01/18 00:53:36;;;;;;;17.20;2.15;;;6.00;99.90;;;;;;5009723;28;20026;-74
2022/01/18 00:58:32;;;;;;;12.23;2.53;;;6.00;99.90;;;;;;5009691;28;20048;-73
2022/01/18 01:00:58;;;;;;;10.63;2.13;;;6.00;99.90;;;;;;5010164;28;20492;-74
2022/01/18 01:03:24;;;;;;;16.30;2.55;;;6.00;99.90;;;;;;5010008;28;20567;-73
2022/01/18 01:05:50;;;;;;;12.02;2.08;;;6.00;99.90;;;;;;5010486;28;20029;-74
2022/01/18 01:08:17;;;;;;;20.00;2.80;;;6.10;99.90;;;;;;5001429;28;20032;-74
2022/01/18 01:10:43;;;;;;;11.77;2.20;;;6.00;99.90;;;;;;5008237;28;20080;-74
2022/01/18 01:13:10;;;;;;;10.52;2.20;;;6.00;99.90;;;;;;5012482;28;20468;-74
2022/01/18 01:15:52;;;;;;;15.52;2.88;;;6.00;99.90;;;;;;5006695;28;20038;-74
2022/01/18 01:18:36;;;;;;;16.35;2.50;;;6.00;99.90;;;;;;5006590;28;20026;-74
2022/01/18 01:45:18;;;;;;;10.30;2.13;;;6.10;99.90;;;;;;5002284;28;20392;-75
2022/01/18 01:47:49;;;;;;;8.60;1.90;;;6.10;99.90;;;;;;5008965;28;20022;-73
2022/01/18 01:50:19;;;;;;;13.60;2.60;;;6.10;99.90;;;;;;5008821;28;20022;-74
2022/01/18 01:52:47;;;;;;;10.57;2.50;;;6.10;99.90;;;;;;5011955;28;20049;-74
2022/01/18 01:55:13;;;;;;;14.02;2.58;;;6.10;99.90;;;;;;5012364;28;20029;-75
2022/01/18 01:57:39;;;;;;;18.75;3.20;;;6.10;99.90;;;;;;5013167;28;20022;-74
2022/01/18 02:00:09;;;;;;;15.48;2.28;;;6.10;99.90;;;;;;5013159;28;20372;-76
2022/01/18 02:02:34;;;;;;;14.20;1.95;;;6.10;99.90;;;;;;5011834;28;20109;-73
2022/01/18 02:05:01;;;;;;;12.18;1.73;;;6.10;99.90;;;;;;5008617;28;20113;-73
2022/01/18 02:07:26;;;;;;;9.63;2.50;;;6.10;99.90;;;;;;5013032;28;20731;-73
2022/01/18 02:09:52;;;;;;;11.00;2.38;;;6.20;99.90;;;;;;5009283;28;20034;-73
2022/01/18 02:12:18;;;;;;;7.65;1.52;;;6.10;99.90;;;;;;5011009;28;20041;-74
2022/01/18 02:14:53;;;;;;;9.95;1.95;;;6.20;99.90;;;;;;5012968;28;20018;-73
2022/01/18 02:22:52;;;;;;;12.48;1.83;;;6.10;99.90;;;;;;5011553;28;20042;-74
2022/01/18 02:25:18;;;;;;;9.18;1.90;;;6.10;99.90;;;;;;5008036;28;20048;-74
2022/01/18 02:27:44;;;;;;;11.63;1.73;;;6.10;99.90;;;;;;5010719;28;20543;-74
2022/01/18 02:30:14;;;;;;;9.73;1.40;;;6.20;99.90;;;;;;5011951;28;20026;-73
2022/01/18 02:32:40;;;;;;;10.80;1.60;;;6.20;99.90;;;;;;5009151;28;20072;-74
2022/01/18 02:35:06;;;;;;;10.00;1.83;;;6.20;99.90;;;;;;5011466;28;20413;-73
2022/01/18 02:37:31;;;;;;;8.18;1.40;;;6.20;99.90;;;;;;5012949;28;20025;-74
2022/01/18 02:39:57;;;;;;;7.25;1.77;;;6.20;99.90;;;;;;5010979;28;20037;-74
2022/01/18 02:42:27;;;;;;;11.57;1.55;;;6.30;99.90;;;;;;5007283;28;20037;-73
2022/01/18 02:44:53;;;;;;;10.55;1.80;;;6.30;99.90;;;;;;5008944;28;20037;-75
2022/01/18 02:47:19;;;;;;;7.03;1.20;;;6.30;99.90;;;;;;5009593;28;20025;-74
2022/01/18 02:49:47;;;;;;;8.10;2.05;;;6.30;99.90;;;;;;5007268;28;20488;-73
2022/01/18 02:52:13;;;;;;;7.35;1.17;;;6.30;99.90;;;;;;5005751;28;20037;-74
2022/01/18 02:54:39;;;;;;;6.60;1.52;;;6.30;99.90;;;;;;5011761;28;20026;-74
2022/01/18 02:57:10;;;;;;;8.50;1.10;;;6.30;99.90;;;;;;5007768;28;20430;-75
2022/01/18 03:00:03;;;;;;;11.77;1.60;;;6.30;99.90;;;;;;5010246;28;20030;-73
2022/01/18 03:05:16;;;;;;;8.68;1.67;;;6.30;99.90;;;;;;5010092;28;20041;-74
2022/01/18 03:07:43;;;;;;;11.20;1.38;;;6.30;99.90;;;;;;5009898;28;20026;-74
2022/01/18 03:10:11;;;;;;;11.82;1.98;;;6.30;99.90;;;;;;5006010;28;20028;-74
2022/01/18 03:12:37;;;;;;;6.13;1.10;;;6.30;99.90;;;;;;5008620;28;20018;-74
2022/01/18 03:15:04;;;;;;;5.85;1.00;;;6.30;99.90;;;;;;5005936;28;20522;-74
2022/01/18 03:17:29;;;;;;;7.05;1.20;;;6.30;99.90;;;;;;5010604;28;20479;-74
2022/01/18 03:19:55;;;;;;;5.85;0.95;;;6.40;99.90;;;;;;5009765;28;20552;-73
2022/01/18 03:22:20;;;;;;;12.93;1.65;;;6.40;99.90;;;;;;5012085;28;20018;-74
2022/01/18 03:30:05;;;;;;;5.05;1.20;;;6.40;99.90;;;;;;5011710;28;20026;-74
2022/01/18 03:32:31;;;;;;;6.07;1.45;;;6.40;99.90;;;;;;5005474;28;20026;-73
2022/01/18 03:34:57;;;;;;;7.75;1.30;;;6.40;99.90;;;;;;5013177;28;20029;-73
2022/01/18 03:37:22;;;;;;;6.43;1.20;;;6.40;99.90;;;;;;5008824;28;20018;-73
2022/01/18 03:39:48;;;;;;;9.07;1.05;;;6.40;99.90;;;;;;5006507;28;20472;-74
2022/01/18 03:45:02;;;;;;;6.53;1.20;;;6.40;99.90;;;;;;5010680;28;20383;-73
2022/01/18 03:47:28;;;;;;;4.65;0.90;;;6.50;99.90;;;;;;5007498;28;20054;-74
2022/01/18 03:49:54;;;;;;;7.20;1.02;;;6.50;99.90;;;;;;5011803;28;20034;-74
2022/01/18 03:52:20;;;;;;;8.98;1.23;;;6.40;99.90;;;;;;5007441;28;20028;-77
2022/01/18 03:54:47;;;;;;;7.22;1.55;;;6.50;99.90;;;;;;5008859;28;20026;-73
2022/01/18 03:57:17;;;;;;;5.60;1.20;;;6.40;99.90;;;;;;5010755;28;20404;-73
2022/01/18 03:59:44;;;;;;;11.57;1.75;;;6.50;99.90;;;;;;5009315;28;20025;-74
2022/01/18 04:02:10;;;;;;;12.23;1.83;;;6.50;99.90;;;;;;5007539;28;20030;-74
2022/01/18 04:04:37;;;;;;;8.43;1.40;;;6.50;99.90;;;;;;5007741;28;20427;-73
2022/01/18 04:07:04;;;;;;;5.88;1.60;;;6.50;99.90;;;;;;5011506;28;20464;-74
2022/01/18 04:09:30;;;;;;;6.95;1.27;;;6.40;99.90;;;;;;5008017;28;20025;-74
2022/01/18 04:11:55;;;;;;;8.20;1.10;;;6.50;99.90;;;;;;5008975;28;20034;-77
2022/01/18 04:14:21;;;;;;;9.07;1.40;;;6.50;99.90;;;;;;5006727;28;20021;-73
2022/01/18 04:27:37;;;;;;;4.05;0.68;;;6.50;99.90;;;;;;5008411;28;20473;-74
2022/01/18 04:30:05;;;;;;;5.47;1.00;;;6.50;99.90;;;;;;5010315;28;20424;-74
2022/01/18 04:32:31;;;;;;;9.32;1.10;;;6.50;99.90;;;;;;5005969;28;20507;-75
2022/01/18 04:34:57;;;;;;;4.70;1.17;;;6.50;99.90;;;;;;5003675;28;20046;-74
2022/01/18 04:37:22;;;;;;;5.63;1.10;;;6.50;99.90;;;;;;5009727;28;20036;-73
2022/01/18 04:39:51;;;;;;;4.93;0.77;;;6.50;99.90;;;;;;5010018;28;20018;-74
2022/01/18 04:42:32;;;;;;;5.97;1.40;;;6.50;99.90;;;;;;5010082;28;20101;-74
2022/01/18 04:50:26;;;;;;;6.18;1.13;;;6.60;99.90;;;;;;5008542;28;20045;-73
2022/01/18 04:52:52;;;;;;;6.95;1.02;;;6.60;99.90;;;;;;5009220;28;20037;-74
2022/01/18 04:55:18;;;;;;;6.82;1.08;;;6.50;99.90;;;;;;5009046;28;20522;-74
2022/01/18 04:57:54;;;;;;;6.28;1.15;;;6.60;99.90;;;;;;5006836;28;20029;-74
2022/01/18 05:00:21;;;;;;;5.28;1.02;;;6.60;99.90;;;;;;5008671;28;20022;-74
2022/01/18 05:02:47;;;;;;;3.92;0.82;;;6.60;99.90;;;;;;5007920;28;20065;-74
2022/01/18 05:05:25;;;;;;;5.63;1.15;;;6.50;99.90;;;;;;5003624;28;20034;-75
2022/01/18 05:07:53;;;;;;;8.25;1.08;;;6.60;99.90;;;;;;5009073;28;20387;-74
2022/01/18 05:10:21;;;;;;;11.70;1.20;;;6.60;99.90;;;;;;5008835;28;20491;-74
2022/01/18 05:12:50;;;;;;;5.93;1.00;;;6.60;99.90;;;;;;5000085;28;20073;-74
2022/01/18 05:15:39;;;;;;;5.70;1.27;;;6.50;99.90;;;;;;5009187;28;20026;-74
2022/01/18 05:21:18;;;;;;;5.53;1.10;;;6.60;99.90;;;;;;5008317;28;20053;-74
2022/01/18 05:23:19;;;;;;;5.55;1.42;;;6.50;99.90;;;;;;5005332;28;20089;-73
2022/01/18 05:25:46;;;;;;;7.97;2.03;;;6.50;99.90;;;;;;5007905;28;20486;-75
2022/01/18 05:28:13;;;;;;;8.95;1.30;;;6.40;99.90;;;;;;5010592;28;20519;-74
2022/01/18 05:30:39;;;;;;;9.05;2.20;;;6.50;99.90;;;;;;5009364;28;20105;-75
2022/01/18 05:33:06;;;;;;;10.23;1.90;;;6.40;99.90;;;;;;5002293;28;20057;-75
2022/01/18 05:35:33;;;;;;;9.10;2.22;;;6.40;99.90;;;;;;4988228;28;20468;-75
2022/01/18 05:38:00;;;;;;;7.07;1.30;;;6.30;99.90;;;;;;5010453;28;20025;-74
2022/01/18 05:40:26;;;;;;;8.10;1.88;;;6.30;99.90;;;;;;5008938;28;20030;-74
2022/01/18 05:42:52;;;;;;;13.52;2.50;;;6.40;99.90;;;;;;5005459;28;20655;-74
2022/01/18 05:45:17;;;;;;;10.40;2.10;;;6.30;99.90;;;;;;5007237;28;20029;-76
2022/01/18 05:47:44;;;;;;;14.57;2.22;;;6.30;99.90;;;;;;5004547;28;20456;-74
2022/01/18 05:50:11;;;;;;;15.85;2.75;;;6.30;99.90;;;;;;5007614;28;20026;-74
2022/01/18 05:52:37;;;;;;;9.02;2.00;;;6.30;99.90;;;;;;5003704;28;20045;-73
2022/01/18 05:55:04;;;;;;;12.85;2.33;;;6.30;99.90;;;;;;5003195;28;20504;-73
2022/01/18 05:57:30;;;;;;;16.48;2.67;;;6.40;99.90;;;;;;5008170;28;20014;-74
2022/01/18 06:00:03;;;;;;;13.57;2.92;;;6.40;99.90;;;;;;5003709;28;20037;-73
2022/01/18 06:07:51;;;;;;;10.65;2.75;;;6.40;99.90;;;;;;5005740;28;20538;-73
2022/01/18 06:10:17;;;;;;;18.30;4.50;;;6.40;99.90;;;;;;4996478;28;20026;-73
2022/01/18 06:12:43;;;;;;;12.23;3.50;;;6.40;99.90;;;;;;5006463;28;20120;-74
2022/01/18 06:15:10;;;;;;;18.42;3.70;;;6.40;99.90;;;;;;5006369;28;20095;-73
2022/01/18 06:17:35;;;;;;;10.40;4.10;;;6.40;99.90;;;;;;5002819;28;20032;-75
2022/01/18 06:20:01;;;;;;;19.02;3.75;;;6.40;99.90;;;;;;5007000;28;20473;-74
2022/01/18 06:22:27;;;;;;;12.18;2.80;;;6.50;99.90;;;;;;5000936;28;20018;-75
2022/01/18 06:24:52;;;;;;;18.45;4.15;;;6.50;99.90;;;;;;4999495;28;20026;-74
2022/01/18 06:27:18;;;;;;;12.63;3.58;;;6.50;99.90;;;;;;5004445;28;20030;-75
2022/01/18 06:29:44;;;;;;;15.30;4.03;;;6.50;99.90;;;;;;5003903;28;20052;-75
2022/01/18 06:32:10;;;;;;;22.98;5.40;;;6.60;99.90;;;;;;5000723;28;20959;-74
2022/01/18 06:34:36;;;;;;;14.38;3.47;;;6.50;99.90;;;;;;5004895;28;20042;-76
2022/01/18 06:37:02;;;;;;;13.45;4.03;;;6.60;99.90;;;;;;5006259;28;20109;-77
2022/01/18 06:39:28;;;;;;;22.52;4.72;;;6.60;99.90;;;;;;5008642;28;20033;-72
2022/01/18 06:41:54;;;;;;;18.80;4.72;;;6.60;99.90;;;;;;5007505;28;20060;-73
2022/01/18 06:44:20;;;;;;;10.63;3.72;;;6.60;99.90;;;;;;5012026;28;20026;-72
2022/01/18 06:46:45;;;;;;;15.43;4.03;;;6.60;99.90;;;;;;5012220;28;20034;-72
2022/01/18 06:49:11;;;;;;;17.33;4.30;;;6.60;99.90;;;;;;5015349;28;20037;-73
2022/01/18 06:51:36;;;;;;;17.10;3.90;;;6.60;99.90;;;;;;5008818;28;20033;-73
2022/01/18 06:54:03;;;;;;;25.05;5.22;;;6.60;99.90;;;;;;5010879;28;20122;-72
2022/01/18 06:56:28;;;;;;;23.08;4.60;;;6.60;99.90;;;;;;5007262;28;20034;-73
2022/01/18 06:58:54;;;;;;;14.77;4.20;;;6.60;99.90;;;;;;5007657;28;20092;-74
2022/01/18 07:01:21;;;;;;;17.02;5.15;;;6.60;99.90;;;;;;5010171;28;20061;-72
2022/01/18 07:03:48;;;;;;;19.13;4.20;;;6.60;99.90;;;;;;5008338;28;20037;-74
2022/01/18 07:06:15;;;;;;;23.33;4.93;;;6.60;99.90;;;;;;4992248;28;20045;-74
2022/01/18 07:08:41;;;;;;;22.70;5.53;;;6.60;99.90;;;;;;5009225;28;20151;-73
2022/01/18 07:11:07;;;;;;;22.30;4.68;;;6.70;99.90;;;;;;5009922;28;20108;-72
2022/01/18 07:13:33;;;;;;;19.42;4.22;;;6.60;99.90;;;;;;5005651;28;20037;-73
2022/01/18 07:15:59;;;;;;;22.35;5.22;;;6.60;99.90;;;;;;5005929;28;20120;-73
2022/01/18 07:18:26;;;;;;;34.35;5.45;;;6.60;99.90;;;;;;5004918;28;20025;-73
2022/01/18 07:20:52;;;;;;;25.80;5.45;;;6.60;99.90;;;;;;5008505;28;20059;-73
2022/01/18 07:23:27;;;;;;;21.60;5.07;;;6.60;99.90;;;;;;5008758;28;20030;-75
2022/01/18 07:25:53;;;;;;;21.45;5.03;;;6.60;99.90;;;;;;5017021;28;20075;-74
2022/01/18 07:28:19;;;;;;;27.17;4.50;;;6.70;99.90;;;;;;5008005;28;20101;-73
2022/01/18 07:30:49;;;;;;;36.30;5.22;;;6.70;99.90;;;;;;5010887;28;20080;-74
2022/01/18 07:33:16;;;;;;;23.63;5.15;;;6.70;99.90;;;;;;5009127;28;20026;-73
2022/01/18 07:35:43;;;;;;;22.33;4.57;;;6.70;99.90;;;;;;5009367;28;20045;-73
2022/01/18 07:38:12;;;;;;;24.35;4.82;;;6.70;99.90;;;;;;5010418;28;20498;-75
2022/01/18 07:40:45;;;;;;;21.55;4.05;;;6.70;99.90;;;;;;5007241;28;20026;-75
2022/01/18 07:43:19;;;;;;;36.80;6.45;;;6.70;99.90;;;;;;5001805;28;20053;-74
2022/01/18 07:45:48;;;;;;;18.48;4.00;;;6.70;99.90;;;;;;5008168;28;20129;-73
2022/01/18 07:48:13;;;;;;;28.52;5.80;;;6.70;99.90;;;;;;5010887;28;20101;-73
2022/01/18 07:50:40;;;;;;;24.23;4.80;;;6.80;99.90;;;;;;5006850;28;20113;-73
2022/01/18 07:53:07;;;;;;;29.33;4.47;;;6.70;99.90;;;;;;5008414;28;20022;-74
2022/01/18 07:55:33;;;;;;;18.13;3.85;;;6.80;99.90;;;;;;5006952;28;20049;-73
2022/01/18 07:58:00;;;;;;;27.58;4.88;;;6.80;99.90;;;;;;5006286;28;20519;-74
2022/01/18 08:00:26;;;;;;;31.20;5.20;;;6.80;99.90;;;;;;5007243;28;20083;-74
2022/01/18 08:02:52;;;;;;;20.83;4.25;;;6.70;99.90;;;;;;5008860;28;20080;-74
2022/01/18 08:05:18;;;;;;;26.20;4.38;;;6.80;99.90;;;;;;5006413;28;20038;-73
2022/01/18 08:07:43;;;;;;;26.42;4.20;;;6.80;99.90;;;;;;5017189;28;20115;-73
2022/01/18 08:10:11;;;;;;;28.38;5.85;;;6.80;99.90;;;;;;5008509;28;20458;-73
2022/01/18 08:12:37;;;;;;;23.90;4.97;;;6.80;99.90;;;;;;5005788;28;20062;-75
2022/01/18 08:15:13;;;;;;;24.50;5.40;;;6.80;99.90;;;;;;5002183;28;20033;-74
2022/01/18 08:17:45;;;;;;;32.92;6.30;;;6.90;99.90;;;;;;5004483;28;20022;-73
2022/01/18 08:20:13;;;;;;;38.85;6.60;;;6.90;99.90;;;;;;5009214;28;20030;-73
2022/01/18 08:22:43;;;;;;;25.83;4.65;;;6.80;99.90;;;;;;5004141;28;20077;-73
2022/01/18 08:25:10;;;;;;;21.42;5.38;;;6.90;99.90;;;;;;5005116;28;20030;-73
2022/01/18 08:27:36;;;;;;;30.80;4.93;;;6.90;99.90;;;;;;5008512;28;20022;-73
2022/01/18 08:30:04;;;;;;;27.63;5.35;;;6.90;99.90;;;;;;5002524;28;20021;-73
2022/01/18 08:32:30;;;;;;;26.50;6.50;;;7.00;99.90;;;;;;5005424;28;20133;-73
2022/01/18 08:34:55;;;;;;;30.52;5.25;;;7.00;99.90;;;;;;5007283;28;20128;-74
2022/01/18 08:37:21;;;;;;;31.02;6.35;;;7.00;99.90;;;;;;5008189;28;20510;-73
2022/01/18 08:39:47;;;;;;;33.08;4.88;;;7.00;99.90;;;;;;5008326;28;20026;-73
2022/01/18 08:42:13;;;;;;;35.83;6.35;;;7.00;99.90;;;;;;5006521;28;20468;-73
2022/01/18 08:44:43;;;;;;;22.67;3.88;;;7.00;99.90;;;;;;5007175;28;20042;-73
2022/01/18 08:47:12;;;;;;;23.17;5.00;;;7.00;99.90;;;;;;5004400;28;20041;-75
2022/01/18 08:49:38;;;;;;;28.70;4.90;;;7.10;99.90;;;;;;5005646;28;20050;-74
2022/01/18 08:52:04;;;;;;;24.40;4.30;;;7.10;99.90;;;;;;5005005;28;20124;-74
2022/01/18 08:54:30;;;;;;;22.63;4.60;;;7.10;99.90;;;;;;5005531;28;20026;-74
2022/01/18 08:56:56;;;;;;;26.88;5.18;;;7.10;99.90;;;;;;5006404;28;20042;-74
2022/01/18 08:59:22;;;;;;;21.38;4.45;;;7.20;99.90;;;;;;5006679;28;20030;-74
2022/01/18 09:01:49;;;;;;;18.15;3.67;;;7.20;99.90;;;;;;5005956;28;20503;-74
2022/01/18 09:04:14;;;;;;;23.42;4.72;;;7.20;99.90;;;;;;5006950;28;20061;-74
2022/01/18 09:06:41;;;;;;;22.40;4.43;;;7.20;99.90;;;;;;5005768;28;20037;-74
2022/01/18 09:09:08;;;;;;;22.83;4.80;;;7.20;99.90;;;;;;5007256;28;20033;-74
2022/01/18 09:11:35;;;;;;;19.95;4.38;;;7.20;99.90;;;;;;5011863;28;20029;-74
2022/01/18 09:14:01;;;;;;;16.67;4.07;;;7.20;99.90;;;;;;5005677;28;20459;-74
2022/01/18 09:16:26;;;;;;;20.98;3.83;;;7.30;99.90;;;;;;5000748;28;20030;-74
2022/01/18 09:18:52;;;;;;;24.65;4.50;;;7.30;99.90;;;;;;5008262;28;20440;-74
2022/01/18 09:21:21;;;;;;;28.77;4.85;;;7.30;99.90;;;;;;5006592;28;20084;-74
2022/01/18 09:23:46;;;;;;;26.20;4.15;;;7.30;99.90;;;;;;5007604;28;20029;-74
2022/01/18 09:26:13;;;;;;;22.35;4.18;;;7.20;99.90;;;;;;5004396;28;20025;-75
2022/01/18 09:28:40;;;;;;;20.73;3.85;;;7.20;99.90;;;;;;5006801;28;20029;-74
2022/01/18 09:31:06;;;;;;;19.30;4.10;;;7.20;99.90;;;;;;5006412;28;20026;-74
2022/01/18 09:33:32;;;;;;;17.35;3.95;;;7.20;99.90;;;;;;5008394;28;20383;-72
2022/01/18 09:35:57;;;;;;;35.58;4.85;;;7.20;99.90;;;;;;5006497;28;20037;-74
2022/01/18 09:38:23;;;;;;;23.45;4.40;;;7.20;99.90;;;;;;5009322;28;20037;-74
2022/01/18 09:40:49;;;;;;;22.45;4.47;;;7.20;99.90;;;;;;5004349;28;20033;-73
2022/01/18 09:43:16;;;;;;;18.20;3.53;;;7.20;99.90;;;;;;5006231;28;20438;-73
2022/01/18 09:45:44;;;;;;;17.98;3.35;;;7.20;99.90;;;;;;5004634;28;20033;-73
2022/01/18 09:48:12;;;;;;;25.60;4.22;;;7.30;99.90;;;;;;5007256;28;20022;-72
2022/01/18 09:50:40;;;;;;;17.63;3.60;;;7.30;99.90;;;;;;5007490;28;20503;-73
2022/01/18 09:53:08;;;;;;;19.02;3.60;;;7.30;99.90;;;;;;5008332;28;20386;-72
2022/01/18 09:55:35;;;;;;;20.08;4.50;;;7.30;99.90;;;;;;5005486;28;20032;-73
2022/01/18 09:58:05;;;;;;;19.90;3.90;;;7.30;99.90;;;;;;5004732;28;20029;-73
2022/01/18 10:00:31;;;;;;;21.75;3.95;;;7.30;99.90;;;;;;5006083;28;20061;-73
2022/01/18 10:02:57;;;;;;;20.33;4.00;;;7.40;99.90;;;;;;5007089;28;20040;-73
2022/01/18 10:05:26;;;;;;;19.40;2.85;;;7.40;99.90;;;;;;5004399;28;20338;-73
2022/01/18 10:07:57;;;;;;;23.95;3.55;;;7.50;99.90;;;;;;5003486;28;20033;-75
2022/01/18 10:10:39;;;;;;;;;;;7.40;99.90;;;;;;5002057;28;20117;-72
2022/01/18 10:13:05;;;;;;;;;;;7.50;99.90;;;;;;5012352;28;21695;-73
2022/01/18 10:15:31;;;;;;;16.55;3.42;;;7.40;99.90;;;;;;5008344;28;19960;-73
2022/01/18 10:18:08;;;;;;;13.32;3.42;;;7.40;99.90;;;;;;5014254;28;20025;-74
2022/01/18 10:20:52;;;;;;;20.10;3.60;;;7.50;99.90;;;;;;5006423;28;20044;-72
2022/01/18 10:23:25;;;;;;;17.38;3.17;;;7.50;99.90;;;;;;5009475;28;20484;-71
2022/01/18 10:25:52;;;;;;;16.85;2.88;;;7.60;99.90;;;;;;5010211;28;20033;-72
2022/01/18 10:28:47;;;;;;;20.33;3.95;;;7.60;99.90;;;;;;5015019;28;20014;-72
2022/01/18 10:31:29;;;;;;;16.77;3.33;;;7.60;99.90;;;;;;5003764;28;20088;-73
2022/01/18 10:37:19;;;;;;;17.05;3.40;;;7.70;99.90;;;;;;4991614;28;20125;-72
2022/01/18 10:39:53;;;;;;;11.57;2.33;;;7.80;99.90;;;;;;5010718;28;20033;-73
2022/01/18 10:42:35;;;;;;;14.32;3.28;;;7.80;99.90;;;;;;5010791;28;20030;-73
2022/01/18 10:45:13;;;;;;;19.48;2.95;;;7.80;99.90;;;;;;5013154;28;20405;-73
2022/01/18 10:47:57;;;;;;;12.80;3.53;;;7.80;99.90;;;;;;5014420;28;20030;-73
2022/01/18 10:50:23;;;;;;;15.63;3.08;;;7.90;99.90;;;;;;5004928;28;20018;-74
2022/01/18 10:52:52;;;;;;;19.70;3.13;;;7.90;99.90;;;;;;5010660;28;20395;-73
2022/01/18 10:55:24;;;;;;;13.80;3.13;;;7.80;99.90;;;;;;5009078;28;20418;-73
2022/01/18 10:57:50;;;;;;;20.05;3.03;;;7.80;99.90;;;;;;5009427;28;20056;-74
2022/01/18 11:00:22;;;;;;;16.70;3.30;;;7.90;99.90;;;;;;5009110;28;20033;-74
2022/01/18 11:02:54;;;;;;;18.63;3.17;;;7.80;99.90;;;;;;5008627;28;20030;-73
2022/01/18 11:05:29;;;;;;;9.68;2.65;;;7.80;99.90;;;;;;5004630;28;20026;-72
2022/01/18 11:08:00;;;;;;;11.60;2.25;;;7.80;99.90;;;;;;5011532;28;20030;-75
2022/01/18 11:10:39;;;;;;;13.18;2.72;;;7.80;99.90;;;;;;5010417;28;20510;-74
2022/01/18 11:13:10;;;;;;;24.33;2.85;;;7.80;99.90;;;;;;5006025;28;20138;-74
2022/01/18 11:15:40;;;;;;;17.65;3.22;;;7.80;99.90;;;;;;5010788;28;20026;-74
2022/01/18 11:18:14;;;;;;;14.25;2.78;;;7.80;99.90;;;;;;5007080;28;20026;-74
2022/01/18 11:20:42;;;;;;;18.35;3.90;;;7.80;99.90;;;;;;5007158;28;20606;-75
2022/01/18 11:23:09;;;;;;;14.55;3.03;;;7.80;99.90;;;;;;5011430;28;20404;-73
2022/01/18 11:25:37;;;;;;;12.45;2.45;;;7.90;99.90;;;;;;5008634;28;20030;-74
2022/01/18 11:28:05;;;;;;;17.08;2.78;;;7.90;99.90;;;;;;5023931;28;20041;-74
2022/01/18 11:30:33;;;;;;;17.17;3.28;;;7.90;99.90;;;;;;5008761;28;20018;-74
2022/01/18 11:33:00;;;;;;;14.32;3.13;;;7.80;99.90;;;;;;5006421;28;20030;-74
2022/01/18 11:35:31;;;;;;;17.13;3.28;;;7.80;99.90;;;;;;5003704;28;20022;-74
2022/01/18 11:38:06;;;;;;;14.65;2.80;;;7.80;99.90;;;;;;5006124;28;20036;-74
2022/01/18 11:40:50;;;;;;;18.70;3.92;;;7.80;99.90;;;;;;5008132;28;20025;-74
2022/01/18 11:43:33;;;;;;;15.07;2.72;;;7.70;99.90;;;;;;5006616;28;20109;-75
2022/01/18 11:45:59;;;;;;;11.13;2.65;;;7.70;99.90;;;;;;5007007;28;20029;-73
2022/01/18 11:48:25;;;;;;;14.27;2.80;;;7.70;99.90;;;;;;5007492;28;20060;-72
2022/01/18 11:51:05;;;;;;;9.75;2.70;;;7.80;99.90;;;;;;5009490;28;20026;-72
2022/01/18 11:56:30;;;;;;;9.05;1.55;;;7.80;99.90;;;;;;5008747;28;20026;-72
2022/01/18 11:59:18;;;;;;;7.80;1.35;;;7.80;99.90;;;;;;5006064;28;20113;-73
2022/01/18 12:01:56;;;;;;;9.07;1.80;;;7.90;99.90;;;;;;5006096;28;20080;-72
2022/01/18 12:07:10;;;;;;;12.23;2.78;;;7.90;99.90;;;;;;5007030;28;20033;-73
2022/01/18 12:09:43;;;;;;;12.68;2.35;;;7.90;99.90;;;;;;5008108;28;20018;-73
2022/01/18 12:12:40;;;;;;;12.48;1.95;;;7.90;99.90;;;;;;5006030;28;20017;-72
2022/01/18 12:15:26;;;;;;;8.77;1.88;;;7.90;99.90;;;;;;5006258;28;20395;-73
2022/01/18 12:17:57;;;;;;;6.50;1.73;;;7.80;99.90;;;;;;5005598;28;20032;-73
2022/01/18 12:20:35;;;;;;;8.63;1.52;;;7.80;99.90;;;;;;5001495;28;20044;-73
2022/01/18 12:23:17;;;;;;;8.35;1.55;;;7.80;99.90;;;;;;5006686;28;20109;-73
2022/01/18 12:25:57;;;;;;;8.85;2.10;;;7.80;99.90;;;;;;5005096;28;20124;-73
2022/01/18 12:31:54;;;;;;;8.82;1.67;;;7.70;99.90;;;;;;5003962;28;20573;-73
2022/01/18 12:34:40;;;;;;;13.35;2.20;;;7.70;99.90;;;;;;5000829;28;20525;-74
2022/01/18 12:37:11;;;;;;;9.52;1.75;;;7.60;99.90;;;;;;5005981;28;20116;-73
2022/01/18 12:45:06;;;;;;;6.63;1.73;;;7.60;99.90;;;;;;5008071;28;20120;-73
2022/01/18 12:47:35;;;;;;;5.55;1.70;;;7.60;99.90;;;;;;5008283;28;20040;-73
2022/01/18 12:50:02;;;;;;;6.40;2.10;;;7.60;99.90;;;;;;5012194;28;20069;-73
2022/01/18 12:53:07;;;;;;;7.07;2.50;;;7.50;99.90;;;;;;5011667;28;20022;-74
2022/01/18 12:55:36;;;;;;;6.88;2.72;;;7.50;99.90;;;;;;5004830;28;20108;-74
2022/01/18 12:58:07;;;;;;;11.77;2.60;;;7.50;99.90;;;;;;5006695;28;20034;-74
2022/01/18 13:01:06;;;;;;;7.90;2.00;;;7.50;99.90;;;;;;5001170;28;20080;-73
2022/01/18 13:03:35;;;;;;;9.27;1.92;;;7.40;99.90;;;;;;4994632;28;20533;-74
2022/01/18 13:06:09;;;;;;;6.65;2.08;;;7.40;99.90;;;;;;5007124;28;20029;-73
2022/01/18 13:08:42;;;;;;;9.93;2.10;;;7.50;99.90;;;;;;5005137;28;20100;-73
2022/01/18 13:11:10;;;;;;;6.88;1.70;;;7.50;99.90;;;;;;5004472;28;20022;-73
2022/01/18 13:13:36;;;;;;;8.73;1.73;;;7.50;99.90;;;;;;5005329;28;20040;-75
2022/01/18 13:22:53;;;;;;;4.30;1.30;;;7.50;99.90;;;;;;5007671;28;20034;-74
2022/01/18 13:27:30;;;;;;;3.65;1.13;;;7.40;99.90;;;;;;5006825;28;20022;-74
2022/01/18 13:30:08;;;;;;;5.20;2.28;;;7.40;99.90;;;;;;5005810;28;20026;-73
2022/01/18 13:32:35;;;;;;;4.28;2.00;;;7.40;99.90;;;;;;5001187;28;20034;-73
2022/01/18 13:35:03;;;;;;;8.75;2.20;;;7.30;99.90;;;;;;5002673;28;20107;-74
2022/01/18 13:37:32;;;;;;;4.55;2.00;;;7.40;99.90;;;;;;5006214;28;20418;-74
2022/01/18 13:40:14;;;;;;;5.20;1.70;;;7.40;99.90;;;;;;5003846;28;20056;-74
2022/01/18 13:42:45;;;;;;;6.18;2.30;;;7.40;99.90;;;;;;5004929;28;20380;-74
2022/01/18 13:45:19;;;;;;;8.88;2.10;;;7.40;99.90;;;;;;5006845;28;20040;-74
2022/01/18 13:47:46;;;;;;;5.85;2.33;;;7.40;99.90;;;;;;5007770;28;20037;-73
2022/01/18 13:50:42;;;;;;;4.78;2.05;;;7.40;99.90;;;;;;5010950;28;20112;-74
2022/01/18 13:53:21;;;;;;;7.43;2.30;;;7.40;99.90;;;;;;5009357;28;20144;-74
2022/01/18 13:55:51;;;;;;;4.65;2.30;;;7.30;99.90;;;;;;5004595;28;20131;-74
2022/01/18 13:58:42;;;;;;;6.50;2.30;;;7.30;99.90;;;;;;5008489;28;20026;-74
2022/01/18 14:01:17;;;;;;;5.32;2.33;;;7.30;99.90;;;;;;5004464;28;20310;-74
2022/01/18 14:03:48;;;;;;;3.83;2.63;;;7.30;99.90;;;;;;5006773;28;20063;-74
2022/01/18 14:06:15;;;;;;;;;;;7.30;99.90;;;;;;5009912;28;20065;-74
2022/01/18 14:08:52;;;;;;;5.25;2.50;;;7.40;99.90;;;;;;5009688;28;19932;-73
2022/01/18 14:11:23;;;;;;;7.57;2.92;;;7.30;99.90;;;;;;5008980;28;20041;-74
2022/01/18 14:13:51;;;;;;;5.55;2.13;;;7.30;99.90;;;;;;5007892;28;20065;-74
2022/01/18 14:16:19;;;;;;;5.85;2.72;;;7.30;99.90;;;;;;5007879;28;20026;-74
2022/01/18 14:19:02;;;;;;;7.80;2.40;;;7.30;99.90;;;;;;5008936;28;20025;-74
2022/01/18 14:21:37;;;;;;;5.68;2.58;;;7.40;99.90;;;;;;5010446;28;20530;-74
2022/01/18 14:24:24;;;;;;;5.80;3.03;;;7.40;99.90;;;;;;5015869;28;20053;-74
2022/01/18 14:26:52;;;;;;;8.77;2.78;;;7.30;99.90;;;;;;5011105;28;20049;-73
2022/01/18 14:29:27;;;;;;;5.15;3.08;;;7.30;99.90;;;;;;5009345;28;20542;-74
2022/01/18 14:32:07;;;;;;;5.35;3.25;;;7.30;99.90;;;;;;5010161;28;20395;-74
2022/01/18 14:34:36;;;;;;;9.07;3.28;;;7.20;99.90;;;;;;5007603;28;20029;-74
2022/01/18 14:37:03;;;;;;;6.93;3.75;;;7.20;99.90;;;;;;5009632;28;20109;-73
2022/01/18 14:39:29;;;;;;;7.22;3.97;;;7.20;99.90;;;;;;5007304;28;20037;-74
2022/01/18 14:42:02;;;;;;;8.15;3.50;;;7.20;99.90;;;;;;5003681;28;20038;-73
2022/01/18 14:44:59;;;;;;;6.63;3.55;;;7.20;99.90;;;;;;5007528;28;20026;-74
2022/01/18 14:47:25;;;;;;;5.65;3.22;;;7.20;99.90;;;;;;5006851;28;20030;-74